sensor_id;sensor_type;location;lat;lon;timestamp;P1;durP1;ratioP1;P2;durP2;ratioP2
32934;SDS011;19292;51.532;7.650;2024-01-30T00:02:17;8.75;;;3.38;;
32934;SDS011;19292;51.532;7.650;2024-01-30T00:04:45;4.07;;;3.67;;
32934;SDS011;19292;51.532;7.650;2024-01-30T00:07:12;4.45;;;3.75;;
32934;SDS011;19292;51.532;7.650;2024-01-30T00:09:43;4.72;;;4.30;;
32934;SDS011;19292;51.532;7.650;2024-01-30T00:12:10;5.28;;;4.82;;
32934;SDS011;19292;51.532;7.650;2024-01-30T00:14:38;3.65;;;3.30;;
32934;SDS011;19292;51.532;7.650;2024-01-30T00:17:03;6.85;;;5.10;;
32934;SDS011;19292;51.532;7.650;2024-01-30T00:19:34;4.55;;;3.53;;
32934;SDS011;19292;51.532;7.650;2024-01-30T00:22:04;3.42;;;3.13;;
32934;SDS011;19292;51.532;7.650;2024-01-30T00:24:31;11.20;;;4.93;;
32934;SDS011;19292;51.532;7.650;2024-01-30T00:26:59;4.45;;;3.85;;
32934;SDS011;19292;51.532;7.650;2024-01-30T00:29:26;2.80;;;2.30;;
32934;SDS011;19292;51.532;7.650;2024-01-30T00:31:56;4.70;;;3.17;;
32934;SDS011;19292;51.532;7.650;2024-01-30T00:34:26;6.03;;;3.60;;
32934;SDS011;19292;51.532;7.650;2024-01-30T00:36:55;5.30;;;3.72;;
32934;SDS011;19292;51.532;7.650;2024-01-30T00:39:23;3.47;;;2.53;;
32934;SDS011;19292;51.532;7.650;2024-01-30T00:41:48;8.23;;;3.17;;
32934;SDS011;19292;51.532;7.650;2024-01-30T00:44:16;3.80;;;3.05;;
32934;SDS011;19292;51.532;7.650;2024-01-30T00:46:43;2.53;;;2.33;;
32934;SDS011;19292;51.532;7.650;2024-01-30T00:49:11;4.15;;;2.92;;
32934;SDS011;19292;51.532;7.650;2024-01-30T00:51:39;5.20;;;2.92;;
32934;SDS011;19292;51.532;7.650;2024-01-30T00:54:07;4.00;;;3.08;;
32934;SDS011;19292;51.532;7.650;2024-01-30T00:56:33;5.10;;;3.08;;
32934;SDS011;19292;51.532;7.650;2024-01-30T00:59:03;3.45;;;3.15;;
32934;SDS011;19292;51.532;7.650;2024-01-30T01:01:30;3.97;;;3.25;;
32934;SDS011;19292;51.532;7.650;2024-01-30T01:03:58;3.38;;;3.15;;
32934;SDS011;19292;51.532;7.650;2024-01-30T01:06:23;6.05;;;3.45;;
32934;SDS011;19292;51.532;7.650;2024-01-30T01:08:53;4.68;;;3.35;;
32934;SDS011;19292;51.532;7.650;2024-01-30T01:11:21;6.30;;;4.28;;
32934;SDS011;19292;51.532;7.650;2024-01-30T01:13:47;5.78;;;2.72;;
32934;SDS011;19292;51.532;7.650;2024-01-30T01:16:12;4.05;;;3.22;;
32934;SDS011;19292;51.532;7.650;2024-01-30T01:18:42;7.60;;;4.10;;
32934;SDS011;19292;51.532;7.650;2024-01-30T01:21:09;4.60;;;3.08;;
32934;SDS011;19292;51.532;7.650;2024-01-30T01:23:34;8.00;;;4.03;;
32934;SDS011;19292;51.532;7.650;2024-01-30T01:26:01;5.03;;;3.25;;
32934;SDS011;19292;51.532;7.650;2024-01-30T01:28:29;2.58;;;2.35;;
32934;SDS011;19292;51.532;7.650;2024-01-30T01:30:57;4.20;;;3.75;;
32934;SDS011;19292;51.532;7.650;2024-01-30T01:33:29;6.93;;;5.03;;
32934;SDS011;19292;51.532;7.650;2024-01-30T01:35:55;3.67;;;3.17;;
32934;SDS011;19292;51.532;7.650;2024-01-30T01:38:20;4.93;;;4.13;;
32934;SDS011;19292;51.532;7.650;2024-01-30T01:40:46;7.63;;;5.28;;
32934;SDS011;19292;51.532;7.650;2024-01-30T01:43:13;3.50;;;3.20;;
32934;SDS011;19292;51.532;7.650;2024-01-30T01:45:39;7.18;;;3.55;;
32934;SDS011;19292;51.532;7.650;2024-01-30T01:48:07;5.13;;;3.80;;
32934;SDS011;19292;51.532;7.650;2024-01-30T01:50:36;7.60;;;4.75;;
32934;SDS011;19292;51.532;7.650;2024-01-30T01:53:03;6.55;;;4.03;;
32934;SDS011;19292;51.532;7.650;2024-01-30T01:55:30;6.57;;;4.28;;
32934;SDS011;19292;51.532;7.650;2024-01-30T01:57:57;4.65;;;4.25;;
32934;SDS011;19292;51.532;7.650;2024-01-30T02:00:22;5.82;;;3.97;;
32934;SDS011;19292;51.532;7.650;2024-01-30T02:02:50;5.60;;;3.50;;
32934;SDS011;19292;51.532;7.650;2024-01-30T02:05:19;8.95;;;4.88;;
32934;SDS011;19292;51.532;7.650;2024-01-30T02:10:17;5.53;;;4.32;;
32934;SDS011;19292;51.532;7.650;2024-01-30T02:12:48;6.67;;;4.13;;
32934;SDS011;19292;51.532;7.650;2024-01-30T02:15:13;3.22;;;2.92;;
32934;SDS011;19292;51.532;7.650;2024-01-30T02:17:41;3.90;;;3.42;;
32934;SDS011;19292;51.532;7.650;2024-01-30T02:20:09;4.95;;;3.58;;
32934;SDS011;19292;51.532;7.650;2024-01-30T02:22:35;4.60;;;3.55;;
32934;SDS011;19292;51.532;7.650;2024-01-30T02:25:04;5.95;;;4.18;;
32934;SDS011;19292;51.532;7.650;2024-01-30T02:27:31;3.28;;;2.97;;
32934;SDS011;19292;51.532;7.650;2024-01-30T02:30:01;4.35;;;3.58;;
32934;SDS011;19292;51.532;7.650;2024-01-30T02:32:29;5.80;;;4.38;;
32934;SDS011;19292;51.532;7.650;2024-01-30T02:34:59;3.28;;;2.97;;
32934;SDS011;19292;51.532;7.650;2024-01-30T02:37:27;6.03;;;3.47;;
32934;SDS011;19292;51.532;7.650;2024-01-30T02:39:52;2.72;;;2.33;;
32934;SDS011;19292;51.532;7.650;2024-01-30T02:42:17;4.35;;;3.35;;
32934;SDS011;19292;51.532;7.650;2024-01-30T02:44:45;3.60;;;3.28;;
32934;SDS011;19292;51.532;7.650;2024-01-30T02:47:15;3.63;;;2.55;;
32934;SDS011;19292;51.532;7.650;2024-01-30T02:49:40;3.42;;;3.10;;
32934;SDS011;19292;51.532;7.650;2024-01-30T02:52:05;4.80;;;3.40;;
32934;SDS011;19292;51.532;7.650;2024-01-30T02:54:33;2.92;;;2.72;;
32934;SDS011;19292;51.532;7.650;2024-01-30T02:57:01;4.87;;;3.33;;
32934;SDS011;19292;51.532;7.650;2024-01-30T02:59:30;3.20;;;2.95;;
32934;SDS011;19292;51.532;7.650;2024-01-30T03:01:58;4.35;;;3.88;;
32934;SDS011;19292;51.532;7.650;2024-01-30T03:04:24;4.70;;;4.13;;
32934;SDS011;19292;51.532;7.650;2024-01-30T03:06:54;5.22;;;4.63;;
32934;SDS011;19292;51.532;7.650;2024-01-30T03:09:21;4.40;;;3.63;;
32934;SDS011;19292;51.532;7.650;2024-01-30T03:11:47;6.18;;;3.75;;
32934;SDS011;19292;51.532;7.650;2024-01-30T03:14:14;3.50;;;2.58;;
32934;SDS011;19292;51.532;7.650;2024-01-30T03:16:42;4.22;;;3.20;;
32934;SDS011;19292;51.532;7.650;2024-01-30T03:19:07;4.53;;;2.83;;
32934;SDS011;19292;51.532;7.650;2024-01-30T03:21:34;3.90;;;2.85;;
32934;SDS011;19292;51.532;7.650;2024-01-30T03:24:01;4.38;;;3.78;;
32934;SDS011;19292;51.532;7.650;2024-01-30T03:26:31;8.55;;;3.20;;
32934;SDS011;19292;51.532;7.650;2024-01-30T03:29:02;5.40;;;3.05;;
32934;SDS011;19292;51.532;7.650;2024-01-30T03:31:29;3.72;;;2.72;;
32934;SDS011;19292;51.532;7.650;2024-01-30T03:33:59;3.13;;;2.20;;
32934;SDS011;19292;51.532;7.650;2024-01-30T03:36:24;7.00;;;3.17;;
32934;SDS011;19292;51.532;7.650;2024-01-30T03:38:54;4.85;;;3.10;;
32934;SDS011;19292;51.532;7.650;2024-01-30T03:41:22;3.92;;;2.70;;
32934;SDS011;19292;51.532;7.650;2024-01-30T03:43:47;3.03;;;2.65;;
32934;SDS011;19292;51.532;7.650;2024-01-30T03:46:15;8.40;;;3.75;;
32934;SDS011;19292;51.532;7.650;2024-01-30T03:48:42;3.58;;;2.53;;
32934;SDS011;19292;51.532;7.650;2024-01-30T03:51:12;5.90;;;2.80;;
32934;SDS011;19292;51.532;7.650;2024-01-30T03:53:43;3.50;;;2.53;;
32934;SDS011;19292;51.532;7.650;2024-01-30T03:56:13;5.13;;;4.03;;
32934;SDS011;19292;51.532;7.650;2024-01-30T03:58:41;2.47;;;2.15;;
32934;SDS011;19292;51.532;7.650;2024-01-30T04:01:07;5.43;;;3.28;;
32934;SDS011;19292;51.532;7.650;2024-01-30T04:03:35;5.60;;;3.30;;
32934;SDS011;19292;51.532;7.650;2024-01-30T04:06:00;6.75;;;2.75;;
32934;SDS011;19292;51.532;7.650;2024-01-30T04:08:30;4.63;;;2.77;;
32934;SDS011;19292;51.532;7.650;2024-01-30T04:10:58;4.93;;;3.25;;
32934;SDS011;19292;51.532;7.650;2024-01-30T04:13:25;4.23;;;2.63;;
32934;SDS011;19292;51.532;7.650;2024-01-30T04:15:53;5.05;;;3.80;;
32934;SDS011;19292;51.532;7.650;2024-01-30T04:18:23;5.57;;;3.47;;
32934;SDS011;19292;51.532;7.650;2024-01-30T04:20:50;6.28;;;3.35;;
32934;SDS011;19292;51.532;7.650;2024-01-30T04:23:16;4.78;;;3.65;;
32934;SDS011;19292;51.532;7.650;2024-01-30T04:25:46;3.88;;;3.20;;
32934;SDS011;19292;51.532;7.650;2024-01-30T04:28:13;4.53;;;4.13;;
32934;SDS011;19292;51.532;7.650;2024-01-30T04:30:39;6.40;;;2.67;;
32934;SDS011;19292;51.532;7.650;2024-01-30T04:33:07;2.80;;;2.38;;
32934;SDS011;19292;51.532;7.650;2024-01-30T04:35:35;6.53;;;3.88;;
32934;SDS011;19292;51.532;7.650;2024-01-30T04:38:01;4.80;;;4.15;;
32934;SDS011;19292;51.532;7.650;2024-01-30T04:40:26;5.65;;;2.85;;
32934;SDS011;19292;51.532;7.650;2024-01-30T04:42:54;4.28;;;3.90;;
32934;SDS011;19292;51.532;7.650;2024-01-30T04:45:24;2.28;;;1.77;;
32934;SDS011;19292;51.532;7.650;2024-01-30T04:47:49;2.60;;;2.38;;
32934;SDS011;19292;51.532;7.650;2024-01-30T04:50:16;5.00;;;2.25;;
32934;SDS011;19292;51.532;7.650;2024-01-30T04:52:42;6.55;;;2.72;;
32934;SDS011;19292;51.532;7.650;2024-01-30T04:55:09;2.85;;;2.63;;
32934;SDS011;19292;51.532;7.650;2024-01-30T04:57:37;3.58;;;2.65;;
32934;SDS011;19292;51.532;7.650;2024-01-30T05:00:04;3.33;;;3.08;;
32934;SDS011;19292;51.532;7.650;2024-01-30T05:02:32;3.15;;;2.80;;
32934;SDS011;19292;51.532;7.650;2024-01-30T05:05:00;5.13;;;2.90;;
32934;SDS011;19292;51.532;7.650;2024-01-30T05:07:28;3.65;;;3.17;;
32934;SDS011;19292;51.532;7.650;2024-01-30T05:09:56;4.35;;;3.35;;
32934;SDS011;19292;51.532;7.650;2024-01-30T05:12:24;5.57;;;3.60;;
32934;SDS011;19292;51.532;7.650;2024-01-30T05:14:53;4.82;;;3.20;;
32934;SDS011;19292;51.532;7.650;2024-01-30T05:17:21;5.50;;;2.53;;
32934;SDS011;19292;51.532;7.650;2024-01-30T05:19:46;5.32;;;3.97;;
32934;SDS011;19292;51.532;7.650;2024-01-30T05:22:12;2.60;;;2.25;;
32934;SDS011;19292;51.532;7.650;2024-01-30T05:24:40;2.35;;;2.15;;
32934;SDS011;19292;51.532;7.650;2024-01-30T05:27:07;2.55;;;2.33;;
32934;SDS011;19292;51.532;7.650;2024-01-30T05:29:34;3.65;;;2.70;;
32934;SDS011;19292;51.532;7.650;2024-01-30T05:32:02;3.35;;;2.50;;
32934;SDS011;19292;51.532;7.650;2024-01-30T05:34:28;3.08;;;2.60;;
32934;SDS011;19292;51.532;7.650;2024-01-30T05:36:58;2.50;;;2.30;;
32934;SDS011;19292;51.532;7.650;2024-01-30T05:39:23;5.18;;;4.55;;
32934;SDS011;19292;51.532;7.650;2024-01-30T05:44:21;2.97;;;2.65;;
32934;SDS011;19292;51.532;7.650;2024-01-30T05:46:47;3.25;;;2.63;;
32934;SDS011;19292;51.532;7.650;2024-01-30T05:49:15;7.05;;;3.97;;
32934;SDS011;19292;51.532;7.650;2024-01-30T05:51:42;9.32;;;5.50;;
32934;SDS011;19292;51.532;7.650;2024-01-30T05:54:07;5.90;;;4.47;;
32934;SDS011;19292;51.532;7.650;2024-01-30T05:56:33;5.57;;;3.97;;
32934;SDS011;19292;51.532;7.650;2024-01-30T05:59:00;3.60;;;2.78;;
32934;SDS011;19292;51.532;7.650;2024-01-30T06:01:26;3.58;;;2.78;;
32934;SDS011;19292;51.532;7.650;2024-01-30T06:03:53;6.68;;;3.38;;
32934;SDS011;19292;51.532;7.650;2024-01-30T06:06:19;2.88;;;2.65;;
32934;SDS011;19292;51.532;7.650;2024-01-30T06:08:46;3.45;;;3.25;;
32934;SDS011;19292;51.532;7.650;2024-01-30T06:11:16;7.43;;;3.50;;
32934;SDS011;19292;51.532;7.650;2024-01-30T06:13:44;4.03;;;3.67;;
32934;SDS011;19292;51.532;7.650;2024-01-30T06:16:09;4.53;;;3.88;;
32934;SDS011;19292;51.532;7.650;2024-01-30T06:18:39;5.13;;;3.63;;
32934;SDS011;19292;51.532;7.650;2024-01-30T06:21:07;2.88;;;2.60;;
32934;SDS011;19292;51.532;7.650;2024-01-30T06:23:35;2.70;;;2.40;;
32934;SDS011;19292;51.532;7.650;2024-01-30T06:26:08;6.30;;;3.13;;
32934;SDS011;19292;51.532;7.650;2024-01-30T06:28:34;6.22;;;3.22;;
32934;SDS011;19292;51.532;7.650;2024-01-30T06:31:00;3.03;;;2.72;;
32934;SDS011;19292;51.532;7.650;2024-01-30T06:33:26;3.72;;;3.42;;
32934;SDS011;19292;51.532;7.650;2024-01-30T06:35:51;4.25;;;3.85;;
32934;SDS011;19292;51.532;7.650;2024-01-30T06:38:19;5.95;;;4.15;;
32934;SDS011;19292;51.532;7.650;2024-01-30T06:40:47;7.10;;;3.83;;
32934;SDS011;19292;51.532;7.650;2024-01-30T06:43:14;4.53;;;2.38;;
32934;SDS011;19292;51.532;7.650;2024-01-30T06:45:40;4.13;;;3.13;;
32934;SDS011;19292;51.532;7.650;2024-01-30T06:48:11;3.03;;;2.28;;
32934;SDS011;19292;51.532;7.650;2024-01-30T06:50:41;4.82;;;3.22;;
32934;SDS011;19292;51.532;7.650;2024-01-30T06:53:06;2.80;;;2.60;;
32934;SDS011;19292;51.532;7.650;2024-01-30T06:55:34;2.53;;;2.30;;
32934;SDS011;19292;51.532;7.650;2024-01-30T06:58:06;4.67;;;2.97;;
32934;SDS011;19292;51.532;7.650;2024-01-30T07:00:31;4.60;;;2.22;;
32934;SDS011;19292;51.532;7.650;2024-01-30T07:02:59;6.13;;;2.78;;
32934;SDS011;19292;51.532;7.650;2024-01-30T07:05:27;5.10;;;4.13;;
32934;SDS011;19292;51.532;7.650;2024-01-30T07:07:52;8.35;;;2.63;;
32934;SDS011;19292;51.532;7.650;2024-01-30T07:10:20;2.53;;;2.42;;
32934;SDS011;19292;51.532;7.650;2024-01-30T07:12:45;3.70;;;2.50;;
32934;SDS011;19292;51.532;7.650;2024-01-30T07:15:11;3.72;;;2.88;;
32934;SDS011;19292;51.532;7.650;2024-01-30T07:17:37;3.72;;;2.25;;
32934;SDS011;19292;51.532;7.650;2024-01-30T07:20:07;4.07;;;2.58;;
32934;SDS011;19292;51.532;7.650;2024-01-30T07:22:35;3.22;;;2.75;;
32934;SDS011;19292;51.532;7.650;2024-01-30T07:25:03;2.63;;;2.42;;
32934;SDS011;19292;51.532;7.650;2024-01-30T07:27:33;4.30;;;3.03;;
32934;SDS011;19292;51.532;7.650;2024-01-30T07:29:59;4.00;;;3.65;;
32934;SDS011;19292;51.532;7.650;2024-01-30T07:32:27;7.20;;;2.85;;
32934;SDS011;19292;51.532;7.650;2024-01-30T07:34:54;3.88;;;3.17;;
32934;SDS011;19292;51.532;7.650;2024-01-30T07:37:26;2.42;;;2.20;;
32934;SDS011;19292;51.532;7.650;2024-01-30T07:39:53;5.07;;;2.20;;
32934;SDS011;19292;51.532;7.650;2024-01-30T07:42:21;2.67;;;2.42;;
32934;SDS011;19292;51.532;7.650;2024-01-30T07:44:51;3.15;;;2.63;;
32934;SDS011;19292;51.532;7.650;2024-01-30T07:47:16;4.47;;;3.33;;
32934;SDS011;19292;51.532;7.650;2024-01-30T07:49:44;2.63;;;2.45;;
32934;SDS011;19292;51.532;7.650;2024-01-30T07:52:11;3.35;;;2.17;;
32934;SDS011;19292;51.532;7.650;2024-01-30T07:54:39;2.88;;;2.10;;
32934;SDS011;19292;51.532;7.650;2024-01-30T07:57:04;4.22;;;3.85;;
32934;SDS011;19292;51.532;7.650;2024-01-30T07:59:30;4.82;;;3.28;;
32934;SDS011;19292;51.532;7.650;2024-01-30T08:01:57;3.45;;;3.15;;
32934;SDS011;19292;51.532;7.650;2024-01-30T08:04:25;3.40;;;2.90;;
32934;SDS011;19292;51.532;7.650;2024-01-30T08:06:53;3.33;;;2.90;;
32934;SDS011;19292;51.532;7.650;2024-01-30T08:09:18;5.72;;;2.58;;
32934;SDS011;19292;51.532;7.650;2024-01-30T08:11:45;6.30;;;3.67;;
32934;SDS011;19292;51.532;7.650;2024-01-30T08:14:11;4.57;;;2.75;;
32934;SDS011;19292;51.532;7.650;2024-01-30T08:16:36;3.83;;;2.97;;
32934;SDS011;19292;51.532;7.650;2024-01-30T08:19:04;3.15;;;2.75;;
32934;SDS011;19292;51.532;7.650;2024-01-30T08:21:29;3.95;;;2.63;;
32934;SDS011;19292;51.532;7.650;2024-01-30T08:24:01;2.90;;;2.70;;
32934;SDS011;19292;51.532;7.650;2024-01-30T08:26:29;3.70;;;3.17;;
32934;SDS011;19292;51.532;7.650;2024-01-30T08:28:57;3.22;;;2.58;;
32934;SDS011;19292;51.532;7.650;2024-01-30T08:31:26;1.88;;;1.67;;
32934;SDS011;19292;51.532;7.650;2024-01-30T08:33:53;2.55;;;2.33;;
32934;SDS011;19292;51.532;7.650;2024-01-30T08:36:19;4.25;;;2.47;;
32934;SDS011;19292;51.532;7.650;2024-01-30T08:38:45;2.20;;;2.03;;
32934;SDS011;19292;51.532;7.650;2024-01-30T08:41:10;3.55;;;2.53;;
32934;SDS011;19292;51.532;7.650;2024-01-30T08:43:38;3.90;;;2.20;;
32934;SDS011;19292;51.532;7.650;2024-01-30T08:46:05;3.65;;;2.97;;
32934;SDS011;19292;51.532;7.650;2024-01-30T08:48:33;3.65;;;2.90;;
32934;SDS011;19292;51.532;7.650;2024-01-30T08:51:03;2.63;;;2.42;;
32934;SDS011;19292;51.532;7.650;2024-01-30T08:53:33;6.70;;;2.60;;
32934;SDS011;19292;51.532;7.650;2024-01-30T08:56:03;7.15;;;3.40;;
32934;SDS011;19292;51.532;7.650;2024-01-30T08:58:31;4.35;;;2.72;;
32934;SDS011;19292;51.532;7.650;2024-01-30T09:00:56;4.32;;;3.45;;
32934;SDS011;19292;51.532;7.650;2024-01-30T09:03:21;3.47;;;3.17;;
32934;SDS011;19292;51.532;7.650;2024-01-30T09:05:49;3.38;;;3.17;;
32934;SDS011;19292;51.532;7.650;2024-01-30T09:08:14;2.47;;;2.25;;
32934;SDS011;19292;51.532;7.650;2024-01-30T09:10:40;3.97;;;2.40;;
32934;SDS011;19292;51.532;7.650;2024-01-30T09:13:06;3.92;;;3.17;;
32934;SDS011;19292;51.532;7.650;2024-01-30T09:15:33;6.18;;;3.22;;
32934;SDS011;19292;51.532;7.650;2024-01-30T09:18:03;3.65;;;2.70;;
32934;SDS011;19292;51.532;7.650;2024-01-30T09:20:31;3.37;;;2.80;;
32934;SDS011;19292;51.532;7.650;2024-01-30T09:22:58;3.45;;;3.15;;
32934;SDS011;19292;51.532;7.650;2024-01-30T09:25:28;3.27;;;2.10;;
32934;SDS011;19292;51.532;7.650;2024-01-30T09:27:56;7.32;;;2.80;;
32934;SDS011;19292;51.532;7.650;2024-01-30T09:30:22;2.80;;;2.60;;
32934;SDS011;19292;51.532;7.650;2024-01-30T09:32:49;3.50;;;2.97;;
32934;SDS011;19292;51.532;7.650;2024-01-30T09:35:15;2.60;;;2.40;;
32934;SDS011;19292;51.532;7.650;2024-01-30T09:37:45;2.90;;;2.55;;
32934;SDS011;19292;51.532;7.650;2024-01-30T09:40:15;3.95;;;2.65;;
32934;SDS011;19292;51.532;7.650;2024-01-30T09:42:43;2.13;;;2.03;;
32934;SDS011;19292;51.532;7.650;2024-01-30T09:45:15;4.07;;;3.00;;
32934;SDS011;19292;51.532;7.650;2024-01-30T09:47:45;4.40;;;2.60;;
32934;SDS011;19292;51.532;7.650;2024-01-30T09:50:15;2.42;;;2.13;;
32934;SDS011;19292;51.532;7.650;2024-01-30T09:52:41;3.20;;;2.90;;
32934;SDS011;19292;51.532;7.650;2024-01-30T09:55:08;3.45;;;3.03;;
32934;SDS011;19292;51.532;7.650;2024-01-30T09:57:36;4.95;;;2.53;;
32934;SDS011;19292;51.532;7.650;2024-01-30T10:00:02;2.55;;;2.22;;
32934;SDS011;19292;51.532;7.650;2024-01-30T10:02:33;9.10;;;3.22;;
32934;SDS011;19292;51.532;7.650;2024-01-30T10:05:01;4.82;;;2.92;;
32934;SDS011;19292;51.532;7.650;2024-01-30T10:07:27;5.55;;;2.97;;
32934;SDS011;19292;51.532;7.650;2024-01-30T10:09:53;5.25;;;2.75;;
32934;SDS011;19292;51.532;7.650;2024-01-30T10:12:19;5.30;;;2.95;;
32934;SDS011;19292;51.532;7.650;2024-01-30T10:14:44;2.90;;;2.40;;
32934;SDS011;19292;51.532;7.650;2024-01-30T10:17:12;4.40;;;2.60;;
32934;SDS011;19292;51.532;7.650;2024-01-30T10:19:40;3.95;;;2.45;;
32934;SDS011;19292;51.532;7.650;2024-01-30T10:22:06;4.10;;;2.35;;
32934;SDS011;19292;51.532;7.650;2024-01-30T10:24:34;4.15;;;2.97;;
32934;SDS011;19292;51.532;7.650;2024-01-30T10:27:02;3.40;;;2.75;;
32934;SDS011;19292;51.532;7.650;2024-01-30T10:29:28;5.53;;;2.85;;
32934;SDS011;19292;51.532;7.650;2024-01-30T10:32:03;6.82;;;2.88;;
32934;SDS011;19292;51.532;7.650;2024-01-30T10:34:32;3.08;;;1.60;;
32934;SDS011;19292;51.532;7.650;2024-01-30T10:39:32;3.25;;;2.33;;
32934;SDS011;19292;51.532;7.650;2024-01-30T10:42:01;2.65;;;2.33;;
32934;SDS011;19292;51.532;7.650;2024-01-30T10:44:30;2.97;;;2.67;;
32934;SDS011;19292;51.532;7.650;2024-01-30T10:47:06;5.22;;;2.67;;
32934;SDS011;19292;51.532;7.650;2024-01-30T10:49:34;3.28;;;2.42;;
32934;SDS011;19292;51.532;7.650;2024-01-30T10:52:00;4.75;;;2.80;;
32934;SDS011;19292;51.532;7.650;2024-01-30T10:54:27;2.72;;;2.42;;
32934;SDS011;19292;51.532;7.650;2024-01-30T10:56:54;3.28;;;2.47;;
32934;SDS011;19292;51.532;7.650;2024-01-30T10:59:21;2.83;;;2.47;;
32934;SDS011;19292;51.532;7.650;2024-01-30T11:01:48;3.40;;;2.70;;
32934;SDS011;19292;51.532;7.650;2024-01-30T11:04:15;6.18;;;3.90;;
32934;SDS011;19292;51.532;7.650;2024-01-30T11:06:43;6.68;;;4.43;;
32934;SDS011;19292;51.532;7.650;2024-01-30T11:09:10;5.45;;;4.68;;
32934;SDS011;19292;51.532;7.650;2024-01-30T11:14:27;5.25;;;4.80;;
32934;SDS011;19292;51.532;7.650;2024-01-30T11:16:58;3.63;;;3.30;;
32934;SDS011;19292;51.532;7.650;2024-01-30T11:19:24;4.05;;;3.75;;
32934;SDS011;19292;51.532;7.650;2024-01-30T11:21:54;11.02;;;4.25;;
32934;SDS011;19292;51.532;7.650;2024-01-30T11:24:22;4.13;;;3.72;;
32934;SDS011;19292;51.532;7.650;2024-01-30T11:26:55;5.10;;;4.05;;
32934;SDS011;19292;51.532;7.650;2024-01-30T11:29:24;3.05;;;2.83;;
32934;SDS011;19292;51.532;7.650;2024-01-30T11:31:58;4.63;;;2.95;;
32934;SDS011;19292;51.532;7.650;2024-01-30T11:34:27;3.47;;;2.35;;
32934;SDS011;19292;51.532;7.650;2024-01-30T11:36:56;5.75;;;5.25;;
32934;SDS011;19292;51.532;7.650;2024-01-30T11:39:26;4.65;;;4.25;;
32934;SDS011;19292;51.532;7.650;2024-01-30T11:41:52;5.55;;;4.35;;
32934;SDS011;19292;51.532;7.650;2024-01-30T11:44:23;4.53;;;4.22;;
32934;SDS011;19292;51.532;7.650;2024-01-30T11:46:52;10.48;;;9.55;;
32934;SDS011;19292;51.532;7.650;2024-01-30T11:49:18;6.70;;;6.20;;
32934;SDS011;19292;51.532;7.650;2024-01-30T11:51:47;6.57;;;6.13;;
32934;SDS011;19292;51.532;7.650;2024-01-30T11:54:18;7.00;;;6.18;;
32934;SDS011;19292;51.532;7.650;2024-01-30T11:56:43;9.40;;;7.05;;
32934;SDS011;19292;51.532;7.650;2024-01-30T11:59:11;7.60;;;7.10;;
32934;SDS011;19292;51.532;7.650;2024-01-30T12:01:39;6.43;;;5.50;;
32934;SDS011;19292;51.532;7.650;2024-01-30T12:04:05;7.72;;;7.00;;
32934;SDS011;19292;51.532;7.650;2024-01-30T12:06:34;11.35;;;7.53;;
32934;SDS011;19292;51.532;7.650;2024-01-30T12:09:00;8.38;;;7.88;;
32934;SDS011;19292;51.532;7.650;2024-01-30T12:11:29;9.07;;;8.48;;
32934;SDS011;19292;51.532;7.650;2024-01-30T12:13:55;6.10;;;5.70;;
32934;SDS011;19292;51.532;7.650;2024-01-30T12:16:20;8.32;;;7.25;;
32934;SDS011;19292;51.532;7.650;2024-01-30T12:18:46;6.78;;;6.18;;
32934;SDS011;19292;51.532;7.650;2024-01-30T12:21:19;5.75;;;3.88;;
32934;SDS011;19292;51.532;7.650;2024-01-30T12:23:45;4.43;;;4.07;;
32934;SDS011;19292;51.532;7.650;2024-01-30T12:26:10;5.07;;;3.33;;
32934;SDS011;19292;51.532;7.650;2024-01-30T12:28:36;3.63;;;2.42;;
32934;SDS011;19292;51.532;7.650;2024-01-30T12:31:02;2.53;;;2.05;;
32934;SDS011;19292;51.532;7.650;2024-01-30T12:33:33;3.50;;;2.22;;
32934;SDS011;19292;51.532;7.650;2024-01-30T12:36:03;6.30;;;2.70;;
32934;SDS011;19292;51.532;7.650;2024-01-30T12:38:31;5.93;;;2.50;;
32934;SDS011;19292;51.532;7.650;2024-01-30T12:40:59;3.80;;;2.10;;
32934;SDS011;19292;51.532;7.650;2024-01-30T12:43:25;5.57;;;2.80;;
32934;SDS011;19292;51.532;7.650;2024-01-30T12:45:50;4.07;;;3.42;;
32934;SDS011;19292;51.532;7.650;2024-01-30T12:48:17;6.53;;;4.88;;
32934;SDS011;19292;51.532;7.650;2024-01-30T12:50:42;9.45;;;5.25;;
32934;SDS011;19292;51.532;7.650;2024-01-30T12:53:10;9.35;;;4.65;;
32934;SDS011;19292;51.532;7.650;2024-01-30T12:55:37;4.43;;;4.05;;
32934;SDS011;19292;51.532;7.650;2024-01-30T12:58:03;9.32;;;4.40;;
32934;SDS011;19292;51.532;7.650;2024-01-30T13:00:28;3.80;;;3.00;;
32934;SDS011;19292;51.532;7.650;2024-01-30T13:02:54;6.68;;;2.67;;
32934;SDS011;19292;51.532;7.650;2024-01-30T13:05:22;3.28;;;2.92;;
32934;SDS011;19292;51.532;7.650;2024-01-30T13:07:55;5.90;;;2.65;;
32934;SDS011;19292;51.532;7.650;2024-01-30T13:10:22;3.78;;;2.42;;
32934;SDS011;19292;51.532;7.650;2024-01-30T13:12:53;5.63;;;2.72;;
32934;SDS011;19292;51.532;7.650;2024-01-30T13:15:18;4.53;;;2.80;;
32934;SDS011;19292;51.532;7.650;2024-01-30T13:17:44;7.72;;;4.15;;
32934;SDS011;19292;51.532;7.650;2024-01-30T13:20:14;3.55;;;2.67;;
32934;SDS011;19292;51.532;7.650;2024-01-30T13:22:45;8.93;;;6.05;;
32934;SDS011;19292;51.532;7.650;2024-01-30T13:25:13;5.47;;;3.35;;
32934;SDS011;19292;51.532;7.650;2024-01-30T13:27:38;6.97;;;3.65;;
32934;SDS011;19292;51.532;7.650;2024-01-30T13:30:04;7.60;;;2.90;;
32934;SDS011;19292;51.532;7.650;2024-01-30T13:32:37;5.65;;;2.97;;
32934;SDS011;19292;51.532;7.650;2024-01-30T13:37:31;3.80;;;2.70;;
32934;SDS011;19292;51.532;7.650;2024-01-30T13:39:59;4.95;;;3.25;;
32934;SDS011;19292;51.532;7.650;2024-01-30T13:42:27;4.85;;;2.30;;
32934;SDS011;19292;51.532;7.650;2024-01-30T13:44:54;3.83;;;2.50;;
32934;SDS011;19292;51.532;7.650;2024-01-30T13:47:20;3.40;;;3.10;;
32934;SDS011;19292;51.532;7.650;2024-01-30T13:49:46;4.10;;;2.63;;
32934;SDS011;19292;51.532;7.650;2024-01-30T13:52:12;3.67;;;3.38;;
32934;SDS011;19292;51.532;7.650;2024-01-30T13:54:38;6.10;;;4.03;;
32934;SDS011;19292;51.532;7.650;2024-01-30T13:57:03;8.05;;;4.05;;
32934;SDS011;19292;51.532;7.650;2024-01-30T13:59:29;5.30;;;4.20;;
32934;SDS011;19292;51.532;7.650;2024-01-30T14:01:57;3.65;;;3.15;;
32934;SDS011;19292;51.532;7.650;2024-01-30T14:04:24;9.82;;;4.28;;
32934;SDS011;19292;51.532;7.650;2024-01-30T14:06:50;3.35;;;2.47;;
32934;SDS011;19292;51.532;7.650;2024-01-30T14:09:17;8.95;;;2.75;;
32934;SDS011;19292;51.532;7.650;2024-01-30T14:11:46;4.80;;;4.15;;
32934;SDS011;19292;51.532;7.650;2024-01-30T14:14:13;5.38;;;3.45;;
32934;SDS011;19292;51.532;7.650;2024-01-30T14:16:39;4.00;;;2.92;;
32934;SDS011;19292;51.532;7.650;2024-01-30T14:19:04;5.70;;;3.70;;
32934;SDS011;19292;51.532;7.650;2024-01-30T14:21:30;4.95;;;3.30;;
32934;SDS011;19292;51.532;7.650;2024-01-30T14:23:57;4.00;;;3.20;;
32934;SDS011;19292;51.532;7.650;2024-01-30T14:26:25;7.78;;;5.22;;
32934;SDS011;19292;51.532;7.650;2024-01-30T14:28:50;4.97;;;3.72;;
32934;SDS011;19292;51.532;7.650;2024-01-30T14:31:15;5.07;;;4.57;;
32934;SDS011;19292;51.532;7.650;2024-01-30T14:33:43;4.70;;;3.42;;
32934;SDS011;19292;51.532;7.650;2024-01-30T14:36:11;4.95;;;4.20;;
32934;SDS011;19292;51.532;7.650;2024-01-30T14:38:36;4.80;;;4.35;;
32934;SDS011;19292;51.532;7.650;2024-01-30T14:41:01;4.35;;;3.75;;
32934;SDS011;19292;51.532;7.650;2024-01-30T14:43:28;4.85;;;3.72;;
32934;SDS011;19292;51.532;7.650;2024-01-30T14:45:59;4.97;;;3.97;;
32934;SDS011;19292;51.532;7.650;2024-01-30T14:48:24;4.55;;;3.10;;
32934;SDS011;19292;51.532;7.650;2024-01-30T14:50:51;3.47;;;2.92;;
32934;SDS011;19292;51.532;7.650;2024-01-30T14:53:17;4.78;;;2.95;;
32934;SDS011;19292;51.532;7.650;2024-01-30T14:55:44;5.55;;;3.38;;
32934;SDS011;19292;51.532;7.650;2024-01-30T14:58:10;7.65;;;3.30;;
32934;SDS011;19292;51.532;7.650;2024-01-30T15:00:35;8.65;;;5.75;;
32934;SDS011;19292;51.532;7.650;2024-01-30T15:03:03;3.10;;;2.60;;